Погода Бочаровона 2 недели

Смоленская область, Россия

26 мая-08 июня
  • 26мая
    Сегодня
    +9°
    +26°
    Небольшая облачность
    ВремяПогодаТемператураВлажностьДавлениеВетер, м/сВероятность осадков
    00:00Ясно и безоблачно+10°C70 %750 мм2.1 м/с2 %
    03:00Ясно и безоблачно+9°C78 %750 мм2.3 м/с2 %
    06:00Ясно и безоблачно+11°C76 %751 мм2.1 м/с2 %
    09:00Ясно и безоблачно+20°C64 %751 мм0.7 м/с2 %
    12:00Облачно с прояснениями+24°C43 %751 мм1.9 м/с2 %
    15:00Небольшая облачность+26°C40 %751 мм1.8 м/с9 %
    18:00Небольшая облачность+23°C53 %751 мм2.6 м/с14 %
    21:00Практически безоблачно+19°C78 %751 мм2.2 м/с3 %
  • 27мая
    Понедельник
    +11°
    +25°
    Практически безоблачно
    ВремяПогодаТемператураВлажностьДавлениеВетер, м/сВероятность осадков
    00:00Практически безоблачно+13°C87 %751 мм2.5 м/с2 %
    03:00Практически безоблачно+10°C87 %752 мм2.5 м/с2 %
    06:00Ясно и безоблачно+11°C75 %752 мм2.5 м/с2 %
    09:00Ясно и безоблачно+18°C63 %753 мм2.0 м/с2 %
    12:00Небольшая облачность+22°C52 %752 мм2.2 м/с7 %
    15:00Практически безоблачно+24°C44 %752 мм1.5 м/с10 %
    18:00Практически безоблачно+24°C44 %751 мм1.4 м/с6 %
    21:00Практически безоблачно+19°C64 %750 мм2.2 м/с2 %
  • 28мая
    Вторник
    +11°
    +25°
    Практически безоблачно
    ВремяПогодаТемператураВлажностьДавлениеВетер, м/сВероятность осадков
    00:00Небольшая облачность+14°C65 %750 мм2.1 м/с2 %
    03:00Небольшая облачность+12°C72 %750 мм1.8 м/с2 %
    06:00Облачно с прояснениями+13°C73 %750 мм2.1 м/с2 %
    09:00Ясно и безоблачно+21°C60 %750 мм1.8 м/с2 %
    12:00Облачно с прояснениями+24°C47 %750 мм1.8 м/с5 %
    15:00Практически безоблачно+24°C44 %749 мм2.1 м/с10 %
    18:00Практически безоблачно+25°C43 %748 мм1.8 м/с9 %
    21:00Ясно и безоблачно+19°C64 %747 мм2.2 м/с3 %
  • 29мая
    Среда
    +12°
    +26°
    Практически безоблачно
    ВремяПогодаТемператураВлажностьДавлениеВетер, м/сВероятность осадков
    00:00Ясно и безоблачно+14°C69 %746 мм2.1 м/с2 %
    03:00Ясно и безоблачно+12°C80 %746 мм2.2 м/с2 %
    06:00Ясно и безоблачно+13°C81 %746 мм2.0 м/с2 %
    09:00Ясно и безоблачно+22°C61 %746 мм1.5 м/с2 %
    12:00Практически безоблачно+24°C41 %745 мм0.9 м/с15 %
    15:00Практически безоблачно+25°C41 %744 мм0.9 м/с28 %
    18:00Небольшая облачность+24°C54 %744 мм2.7 м/с43 %
    21:00Небольшая облачность+21°C68 %743 мм1.4 м/с6 %
  • 30мая
    Четверг
    +10°
    +27°
    Пасмурно, сплошная облачность
    ВремяПогодаТемператураВлажностьДавлениеВетер, м/сВероятность осадков
    00:00Ясно и безоблачно+14°C88 %743 мм1.9 м/с2 %
    03:00Ясно и безоблачно+13°C89 %743 мм1.4 м/с2 %
    06:00Ясно и безоблачно+14°C92 %743 мм1.4 м/с2 %
    09:00Ясно и безоблачно+22°C67 %743 мм1.3 м/с2 %
    12:00Ясно и безоблачно+25°C50 %743 мм0.8 м/с11 %
    15:00Пасмурно, сплошная облачность+26°C41 %742 мм1.3 м/с28 %
    18:00Практически безоблачно+25°C49 %742 мм1.8 м/с35 %
    21:00Ясно и безоблачно+20°C71 %742 мм2.1 м/с8 %
Мы используем cookies
Соглашаюсь